Time;durP1;ratioP1;P1;durP2;ratioP2;P2;SDS_P1;SDS_P2;PMS_P1;PMS_P2;Temp;Humidity;BMP_temperature;BMP_pressure;BME280_temperature;BME280_humidity;BME280_pressure;Samples;Min_cycle;Max_cycle;Signal;HPM_P1;HPM_P2
2021/09/05 00:00:58;;;;;;;3.17;3.08;;;15.80;79.00;;;;;;5075396;28;20220;-76
2021/09/05 00:03:24;;;;;;;3.70;3.45;;;15.80;80.50;;;;;;5081520;28;20198;-77
2021/09/05 00:05:50;;;;;;;3.35;3.05;;;15.70;80.10;;;;;;5072257;28;20187;-77
2021/09/05 00:08:15;;;;;;;3.50;3.30;;;15.70;80.10;;;;;;5081274;28;20253;-76
2021/09/05 00:10:41;;;;;;;3.97;3.58;;;15.70;79.90;;;;;;5072540;28;20205;-76
2021/09/05 00:13:07;;;;;;;3.88;3.67;;;15.70;79.70;;;;;;5078305;28;20191;-76
2021/09/05 00:15:33;;;;;;;6.00;3.55;;;15.70;79.70;;;;;;5062773;28;20215;-76
2021/09/05 00:17:58;;;;;;;3.40;3.20;;;15.60;79.90;;;;;;5070733;28;20745;-77
2021/09/05 00:20:24;;;;;;;3.60;3.47;;;15.60;80.10;;;;;;5070517;28;20186;-76
2021/09/05 00:22:50;;;;;;;3.70;3.40;;;15.60;82.40;;;;;;5071689;28;20223;-76
2021/09/05 00:25:16;;;;;;;3.55;3.35;;;15.50;81.20;;;;;;5066232;28;20179;-76
2021/09/05 00:27:42;;;;;;;3.42;3.20;;;15.40;81.80;;;;;;5066146;28;20217;-76
2021/09/05 00:30:08;;;;;;;5.05;4.03;;;15.30;81.30;;;;;;5065260;28;20218;-76
2021/09/05 00:32:34;;;;;;;3.42;3.22;;;15.30;81.40;;;;;;5089214;28;20210;-76
2021/09/05 00:35:00;;;;;;;3.10;2.90;;;15.20;81.90;;;;;;5068966;28;20207;-78
2021/09/05 00:37:26;;;;;;;3.25;3.15;;;15.10;81.60;;;;;;5079237;28;20280;-76
2021/09/05 00:39:51;;;;;;;3.15;2.97;;;15.10;81.70;;;;;;5067816;28;20179;-76
2021/09/05 00:42:27;;;;;;;3.97;3.35;;;15.10;81.70;;;;;;5067028;28;20239;-77
2021/09/05 00:44:55;;;;;;;3.63;3.30;;;15.10;81.40;;;;;;5068185;28;20188;-76
2021/09/05 00:47:21;;;;;;;3.92;3.28;;;15.00;82.30;;;;;;5069116;28;20256;-76
2021/09/05 00:49:47;;;;;;;3.40;3.20;;;15.00;81.90;;;;;;5073247;28;20182;-77
2021/09/05 00:52:14;;;;;;;3.63;3.38;;;15.00;82.50;;;;;;5074104;28;20314;-77
2021/09/05 00:54:44;;;;;;;3.72;3.40;;;15.00;82.20;;;;;;5076672;28;20183;-77
2021/09/05 00:57:13;;;;;;;3.90;3.55;;;15.00;82.10;;;;;;5078197;28;20178;-77
2021/09/05 00:59:40;;;;;;;3.42;3.28;;;15.00;81.70;;;;;;5078522;28;20194;-77
2021/09/05 01:02:06;;;;;;;3.00;2.90;;;15.00;81.80;;;;;;5070821;28;20291;-77
2021/09/05 01:04:33;;;;;;;3.92;3.55;;;15.00;81.40;;;;;;5076114;28;20244;-77
2021/09/05 01:06:59;;;;;;;3.25;3.15;;;15.00;81.80;;;;;;5076415;28;20178;-77
2021/09/05 01:09:27;;;;;;;3.30;3.00;;;15.00;81.50;;;;;;5080601;28;20182;-77
2021/09/05 01:11:53;;;;;;;3.65;3.15;;;15.00;81.80;;;;;;5088066;28;20289;-77
2021/09/05 01:14:19;;;;;;;3.17;2.97;;;14.90;82.00;;;;;;5082669;28;20200;-77
2021/09/05 01:16:44;;;;;;;3.40;3.30;;;14.90;82.10;;;;;;5086277;28;20530;-77
2021/09/05 01:19:15;;;;;;;3.42;3.22;;;14.90;82.30;;;;;;5081839;28;20768;-78
2021/09/05 01:21:44;;;;;;;3.30;3.10;;;14.80;82.10;;;;;;5075633;28;20891;-76
2021/09/05 01:24:11;;;;;;;3.63;3.40;;;14.80;81.90;;;;;;5062341;28;20185;-76
2021/09/05 01:26:39;;;;;;;3.08;2.95;;;14.80;82.50;;;;;;5067873;28;20902;-76
2021/09/05 01:29:06;;;;;;;4.03;3.22;;;14.70;82.80;;;;;;5068537;28;22200;-77
2021/09/05 01:31:42;;;;;;;3.13;2.92;;;14.70;82.30;;;;;;5072318;28;20660;-77
2021/09/05 01:34:08;;;;;;;3.75;3.55;;;14.70;82.40;;;;;;5066763;28;20193;-77
2021/09/05 01:36:35;;;;;;;3.55;3.25;;;14.70;82.60;;;;;;5078530;28;20224;-77
2021/09/05 01:39:01;;;;;;;3.42;3.22;;;14.60;82.50;;;;;;5082924;28;20190;-77
2021/09/05 01:41:27;;;;;;;4.47;2.88;;;14.60;83.90;;;;;;5071599;28;20618;-76
2021/09/05 01:44:00;;;;;;;3.53;3.33;;;14.50;83.50;;;;;;5067988;28;20174;-77
2021/09/05 01:46:26;;;;;;;2.85;2.65;;;14.40;83.00;;;;;;5080512;28;20185;-77
2021/09/05 01:48:52;;;;;;;3.58;3.28;;;14.40;83.10;;;;;;5075794;28;20179;-76
2021/09/05 01:51:18;;;;;;;3.15;2.95;;;14.40;83.20;;;;;;5072958;28;20326;-76
2021/09/05 01:53:43;;;;;;;3.35;3.00;;;14.40;83.70;;;;;;5072054;28;20185;-78
2021/09/05 01:56:09;;;;;;;3.63;3.33;;;14.40;83.40;;;;;;5076191;28;20266;-78
2021/09/05 01:58:35;;;;;;;5.78;2.95;;;14.40;83.70;;;;;;5075922;28;20186;-76
2021/09/05 02:01:00;;;;;;;5.07;3.08;;;14.40;83.60;;;;;;5079444;28;20182;-77
2021/09/05 02:03:26;;;;;;;3.42;3.25;;;14.30;83.50;;;;;;5082665;28;20181;-77
2021/09/05 02:05:53;;;;;;;4.20;3.13;;;14.30;83.50;;;;;;5076673;28;20189;-76
2021/09/05 02:08:19;;;;;;;3.47;3.17;;;14.30;83.30;;;;;;5072554;28;20261;-76
2021/09/05 02:10:45;;;;;;;3.63;3.42;;;14.30;83.20;;;;;;5070858;28;20254;-77
2021/09/05 02:13:10;;;;;;;2.67;2.58;;;14.30;83.40;;;;;;5072542;28;20174;-76
2021/09/05 02:15:36;;;;;;;3.58;3.05;;;14.30;83.50;;;;;;5074226;28;20178;-77
2021/09/05 02:18:02;;;;;;;3.75;3.42;;;14.20;83.30;;;;;;5070061;28;20179;-76
2021/09/05 02:20:28;;;;;;;3.50;3.40;;;14.20;83.20;;;;;;5079479;28;20669;-75
2021/09/05 02:22:54;;;;;;;3.10;2.90;;;14.20;82.80;;;;;;5073097;28;20200;-75
2021/09/05 02:25:21;;;;;;;3.00;2.80;;;14.10;82.80;;;;;;5078850;28;20202;-75
2021/09/05 02:27:47;;;;;;;3.47;3.10;;;14.10;82.80;;;;;;5083760;28;20230;-77
2021/09/05 02:30:13;;;;;;;3.35;3.08;;;14.10;82.90;;;;;;5073472;28;20191;-77
2021/09/05 02:32:39;;;;;;;2.55;2.42;;;14.00;83.30;;;;;;5072801;28;20214;-77
2021/09/05 02:35:06;;;;;;;3.30;3.10;;;14.00;83.40;;;;;;5070286;28;20190;-76
2021/09/05 02:37:32;;;;;;;3.72;3.42;;;14.00;83.40;;;;;;5092133;28;20249;-77
2021/09/05 02:39:58;;;;;;;3.00;2.80;;;14.00;83.50;;;;;;5087899;28;20190;-76
2021/09/05 02:42:24;;;;;;;3.15;2.88;;;14.00;84.70;;;;;;5088490;28;20190;-78
2021/09/05 02:44:50;;;;;;;3.63;3.33;;;13.90;84.20;;;;;;5079313;28;20179;-77
2021/09/05 02:47:15;;;;;;;5.93;3.55;;;13.90;84.60;;;;;;5083390;28;20424;-77
2021/09/05 02:49:41;;;;;;;3.55;3.35;;;13.80;84.60;;;;;;5075751;28;20577;-77
2021/09/05 02:52:09;;;;;;;3.50;3.30;;;13.80;84.70;;;;;;5083967;28;20238;-77
2021/09/05 02:54:38;;;;;;;3.72;3.25;;;13.80;85.40;;;;;;5072879;28;20179;-77
2021/09/05 02:57:04;;;;;;;3.58;3.38;;;13.70;85.00;;;;;;5079240;28;20571;-77
2021/09/05 02:59:30;;;;;;;3.78;3.45;;;13.70;85.10;;;;;;5081456;28;20233;-77
2021/09/05 03:01:55;;;;;;;3.00;2.90;;;13.70;84.90;;;;;;5079798;28;20182;-77
2021/09/05 03:04:21;;;;;;;3.08;2.95;;;13.70;85.20;;;;;;5081839;28;20749;-77
2021/09/05 03:06:47;;;;;;;3.25;3.00;;;13.60;85.40;;;;;;5075818;28;20182;-77
2021/09/05 03:09:12;;;;;;;3.25;2.97;;;13.60;85.30;;;;;;5072302;28;20683;-77
2021/09/05 03:11:38;;;;;;;2.78;2.63;;;13.60;85.60;;;;;;5077527;28;20301;-78
2021/09/05 03:14:04;;;;;;;2.63;2.53;;;13.50;85.70;;;;;;5075847;28;20225;-76
2021/09/05 03:16:29;;;;;;;3.30;3.10;;;13.50;85.60;;;;;;5071673;28;20639;-76
2021/09/05 03:18:55;;;;;;;2.65;2.45;;;13.50;85.60;;;;;;5074474;28;20183;-76
2021/09/05 03:21:21;;;;;;;3.15;2.97;;;13.40;85.70;;;;;;5076995;28;20751;-76
2021/09/05 03:23:46;;;;;;;3.83;3.53;;;13.40;85.60;;;;;;5074775;28;20215;-77
2021/09/05 03:26:12;;;;;;;3.33;3.13;;;13.40;85.70;;;;;;5069998;28;20645;-76
2021/09/05 03:28:38;;;;;;;4.20;2.80;;;13.50;85.60;;;;;;5065701;28;20187;-77
2021/09/05 03:31:03;;;;;;;2.80;2.60;;;13.50;85.40;;;;;;5071665;28;20297;-77
2021/09/05 03:33:29;;;;;;;3.30;3.00;;;13.50;85.40;;;;;;5072075;28;20563;-76
2021/09/05 03:35:55;;;;;;;3.75;3.45;;;13.50;85.30;;;;;;5078451;28;20179;-77
2021/09/05 03:38:20;;;;;;;2.97;2.88;;;13.50;85.40;;;;;;5074899;28;20234;-77
2021/09/05 03:40:46;;;;;;;3.55;3.25;;;13.50;85.30;;;;;;5080570;28;20258;-77
2021/09/05 03:43:12;;;;;;;2.92;2.70;;;13.50;85.40;;;;;;5065214;28;20707;-77
2021/09/05 03:45:38;;;;;;;4.30;3.35;;;13.50;85.20;;;;;;5073045;28;20179;-77
2021/09/05 03:48:04;;;;;;;4.35;3.30;;;13.50;85.40;;;;;;5066524;28;20179;-77
2021/09/05 03:50:29;;;;;;;3.03;2.92;;;13.50;85.20;;;;;;5078205;28;20178;-78
2021/09/05 03:52:55;;;;;;;2.78;2.67;;;13.50;85.20;;;;;;5073065;28;20229;-78
2021/09/05 03:55:21;;;;;;;3.17;2.97;;;13.50;85.40;;;;;;5081529;28;20931;-79
2021/09/05 03:57:47;;;;;;;3.35;3.15;;;13.50;85.20;;;;;;5066845;28;20210;-78
2021/09/05 04:00:13;;;;;;;2.78;2.67;;;13.50;85.20;;;;;;5067080;28;20191;-78
2021/09/05 04:02:39;;;;;;;3.47;2.90;;;13.60;85.10;;;;;;5072956;28;20266;-78
2021/09/05 04:05:06;;;;;;;3.20;2.90;;;13.60;85.20;;;;;;5072651;28;20270;-79
2021/09/05 04:07:34;;;;;;;2.85;2.75;;;13.60;85.00;;;;;;5073523;28;20242;-78
2021/09/05 04:10:19;;;;;;;3.92;3.45;;;13.60;84.90;;;;;;5077329;28;20200;-78
2021/09/05 04:12:44;;;;;;;3.50;3.30;;;13.60;85.40;;;;;;5065907;28;20202;-78
2021/09/05 04:15:11;;;;;;;2.78;2.67;;;13.60;85.20;;;;;;5064077;28;20174;-78
2021/09/05 04:17:37;;;;;;;3.17;2.97;;;13.70;85.10;;;;;;5069640;28;20572;-77
2021/09/05 04:20:04;;;;;;;2.90;2.75;;;13.70;85.40;;;;;;5063558;28;20183;-77
2021/09/05 04:22:32;;;;;;;2.83;2.65;;;13.70;85.30;;;;;;5077377;28;20186;-77
2021/09/05 04:24:58;;;;;;;3.33;3.03;;;13.80;85.30;;;;;;5069633;28;20800;-77
2021/09/05 04:27:24;;;;;;;3.70;3.40;;;13.80;85.30;;;;;;5071918;28;20749;-77
2021/09/05 04:29:49;;;;;;;2.92;2.75;;;13.90;85.30;;;;;;5072418;28;20189;-77
2021/09/05 04:32:17;;;;;;;4.00;3.70;;;13.90;85.20;;;;;;5067591;28;20278;-76
2021/09/05 04:34:43;;;;;;;3.42;3.25;;;14.00;85.00;;;;;;5066730;28;20183;-77
2021/09/05 04:37:09;;;;;;;3.70;3.40;;;14.00;85.00;;;;;;5066918;28;20179;-77
2021/09/05 04:39:34;;;;;;;3.60;3.42;;;14.10;84.70;;;;;;5065580;28;20265;-77
2021/09/05 04:42:00;;;;;;;3.70;3.35;;;14.10;84.60;;;;;;5070504;28;20185;-76
2021/09/05 04:44:26;;;;;;;4.05;3.67;;;14.20;84.50;;;;;;5074497;28;20183;-77
2021/09/05 04:46:51;;;;;;;3.67;3.47;;;14.20;84.30;;;;;;5062755;28;20175;-77
2021/09/05 04:49:17;;;;;;;4.05;3.75;;;14.30;84.20;;;;;;5063881;28;20171;-77
2021/09/05 04:51:43;;;;;;;4.00;3.50;;;14.30;84.20;;;;;;5068777;28;20240;-77
2021/09/05 04:54:08;;;;;;;3.88;3.58;;;14.40;84.00;;;;;;5065388;28;20182;-76
2021/09/05 04:56:34;;;;;;;3.97;3.67;;;14.50;84.00;;;;;;5068583;28;20566;-77
2021/09/05 04:59:00;;;;;;;2.38;2.33;;;14.60;83.60;;;;;;5069038;28;20175;-76
2021/09/05 05:01:26;;;;;;;3.28;3.05;;;14.70;83.50;;;;;;5067918;28;20175;-77
2021/09/05 05:03:51;;;;;;;4.05;3.78;;;14.70;83.20;;;;;;5075296;28;20186;-76
2021/09/05 05:06:17;;;;;;;4.78;3.53;;;14.80;83.00;;;;;;5068660;28;20189;-76
2021/09/05 05:08:43;;;;;;;3.60;3.40;;;14.90;82.90;;;;;;5065799;28;20210;-77
2021/09/05 05:11:17;;;;;;;3.83;3.53;;;14.90;82.70;;;;;;5067266;28;20306;-77
2021/09/05 05:13:44;;;;;;;3.35;3.15;;;15.00;82.00;;;;;;5067354;28;20184;-77
2021/09/05 05:16:09;;;;;;;6.40;3.33;;;15.00;82.30;;;;;;5068287;28;20186;-76
2021/09/05 05:18:35;;;;;;;3.25;3.15;;;15.00;82.30;;;;;;5074800;28;20590;-76
2021/09/05 05:21:01;;;;;;;4.00;3.80;;;15.10;82.40;;;;;;5066871;28;20273;-76
2021/09/05 05:23:28;;;;;;;3.63;3.20;;;15.10;82.70;;;;;;5068653;28;20195;-77
2021/09/05 05:25:55;;;;;;;3.45;3.15;;;15.10;82.40;;;;;;5067547;28;20184;-76
2021/09/05 05:28:22;;;;;;;3.35;3.25;;;15.20;82.40;;;;;;5065093;28;20205;-78
2021/09/05 05:30:48;;;;;;;3.90;3.60;;;15.20;82.40;;;;;;5065838;28;20175;-78
2021/09/05 05:33:14;;;;;;;3.25;3.05;;;15.30;82.60;;;;;;5070015;28;20192;-77
2021/09/05 05:35:39;;;;;;;3.28;3.08;;;15.30;82.40;;;;;;5074858;28;20584;-76
2021/09/05 05:38:05;;;;;;;3.00;2.80;;;15.30;82.30;;;;;;5074222;28;20182;-77
2021/09/05 05:40:35;;;;;;;7.18;3.22;;;15.30;82.30;;;;;;5072245;28;20183;-77
2021/09/05 05:43:01;;;;;;;3.35;3.10;;;15.40;82.50;;;;;;5065518;28;20180;-79
2021/09/05 05:45:27;;;;;;;4.00;2.90;;;15.50;83.00;;;;;;5070590;28;21691;-77
2021/09/05 05:47:53;;;;;;;3.47;3.25;;;15.50;82.50;;;;;;5068625;28;20190;-77
2021/09/05 05:50:19;;;;;;;4.30;3.53;;;15.60;82.40;;;;;;5068444;28;20314;-77
2021/09/05 05:52:45;;;;;;;3.65;3.40;;;15.70;82.30;;;;;;5076014;28;20209;-77
2021/09/05 05:55:11;;;;;;;3.88;3.58;;;15.80;82.10;;;;;;5066760;28;20298;-77
2021/09/05 05:57:37;;;;;;;3.97;3.67;;;15.90;82.00;;;;;;5073437;28;20822;-77
2021/09/05 06:00:07;;;;;;;4.25;3.95;;;16.00;81.10;;;;;;5062520;28;20273;-77
2021/09/05 06:02:33;;;;;;;6.82;3.75;;;16.20;80.70;;;;;;5068629;28;20620;-76
2021/09/05 06:04:58;;;;;;;3.88;3.58;;;16.30;81.10;;;;;;5062060;28;20183;-77
2021/09/05 06:07:27;;;;;;;5.43;3.83;;;16.40;80.90;;;;;;5068720;28;20187;-77
2021/09/05 06:09:53;;;;;;;3.40;3.25;;;16.60;81.30;;;;;;5059473;28;20219;-77
2021/09/05 06:12:19;;;;;;;4.30;3.75;;;16.70;80.70;;;;;;5068547;28;20654;-77
2021/09/05 06:14:45;;;;;;;3.65;3.17;;;16.90;80.20;;;;;;5064960;28;20182;-77
2021/09/05 06:17:11;;;;;;;3.38;3.03;;;17.10;79.70;;;;;;5068732;28;20183;-78
2021/09/05 06:19:37;;;;;;;4.10;3.70;;;17.20;79.90;;;;;;5060714;28;20191;-77
2021/09/05 06:22:03;;;;;;;3.90;3.42;;;17.30;78.90;;;;;;5064241;28;20190;-77
2021/09/05 06:24:29;;;;;;;2.60;2.50;;;17.40;78.80;;;;;;5068443;28;20669;-77
2021/09/05 06:26:54;;;;;;;3.90;3.60;;;17.50;78.50;;;;;;5072733;28;20209;-77
2021/09/05 06:29:20;;;;;;;3.78;3.08;;;17.60;78.10;;;;;;5063262;28;20679;-77
2021/09/05 06:31:46;;;;;;;3.55;3.20;;;17.70;78.60;;;;;;5072421;28;20218;-78
2021/09/05 06:34:11;;;;;;;3.67;2.97;;;17.80;79.00;;;;;;5069311;28;20179;-77
2021/09/05 06:36:37;;;;;;;3.80;3.60;;;17.90;78.60;;;;;;5067431;28;20183;-78
2021/09/05 06:39:03;;;;;;;3.25;3.15;;;18.00;78.40;;;;;;5068144;28;20207;-75
2021/09/05 06:41:29;;;;;;;3.15;2.95;;;18.10;78.40;;;;;;5066406;28;20194;-75
2021/09/05 06:43:56;;;;;;;3.88;3.05;;;18.20;78.20;;;;;;5064950;28;20293;-75
2021/09/05 06:46:23;;;;;;;3.30;3.00;;;18.30;77.90;;;;;;5070640;28;20187;-75
2021/09/05 06:48:49;;;;;;;4.78;4.38;;;18.40;78.20;;;;;;5070377;28;20178;-75
2021/09/05 06:51:15;;;;;;;7.25;6.55;;;18.50;77.60;;;;;;5061476;28;21042;-75
2021/09/05 06:53:41;;;;;;;5.07;4.68;;;18.60;77.70;;;;;;5068765;28;20258;-75
2021/09/05 06:56:07;;;;;;;4.68;3.83;;;18.70;77.30;;;;;;5068767;28;20183;-74
2021/09/05 06:58:33;;;;;;;3.30;3.10;;;18.80;76.90;;;;;;5083509;28;20231;-78
2021/09/05 07:00:59;;;;;;;3.50;3.30;;;18.90;76.30;;;;;;5091257;28;20211;-75
2021/09/05 07:03:24;;;;;;;3.42;3.13;;;19.00;75.40;;;;;;5067837;28;20241;-79
2021/09/05 07:05:50;;;;;;;3.05;2.95;;;19.10;75.40;;;;;;5068063;28;20182;-77
2021/09/05 07:08:16;;;;;;;3.72;3.53;;;19.10;75.20;;;;;;5069108;28;20186;-80
2021/09/05 07:10:42;;;;;;;3.47;3.03;;;19.20;75.20;;;;;;5064395;28;20205;-77
2021/09/05 07:13:08;;;;;;;3.10;3.00;;;19.20;75.60;;;;;;5067473;28;20233;-79
2021/09/05 07:15:36;;;;;;;2.45;2.35;;;19.20;74.80;;;;;;5069701;28;20261;-78
2021/09/05 07:18:03;;;;;;;3.28;3.03;;;19.20;74.50;;;;;;5068688;28;20179;-76
2021/09/05 07:20:29;;;;;;;3.00;2.90;;;19.20;75.00;;;;;;5065330;28;20191;-76
2021/09/05 07:22:56;;;;;;;2.92;2.83;;;19.20;75.20;;;;;;5071640;28;20225;-75
2021/09/05 07:25:22;;;;;;;3.65;2.95;;;19.20;75.10;;;;;;5069053;28;20237;-75
2021/09/05 07:27:49;;;;;;;3.17;3.08;;;19.30;75.30;;;;;;5071148;28;20175;-75
2021/09/05 07:30:16;;;;;;;3.65;3.38;;;19.30;74.20;;;;;;5064470;28;20183;-75
2021/09/05 07:32:42;;;;;;;3.20;3.00;;;19.40;74.20;;;;;;5066667;28;20215;-75
2021/09/05 07:35:09;;;;;;;3.20;3.00;;;19.40;74.70;;;;;;5066414;28;20266;-75
2021/09/05 07:37:36;;;;;;;3.50;3.20;;;19.50;75.00;;;;;;5066084;28;20183;-75
2021/09/05 07:40:02;;;;;;;4.15;3.15;;;19.60;74.60;;;;;;5064183;28;20188;-74
2021/09/05 07:42:28;;;;;;;4.13;3.38;;;19.80;74.50;;;;;;5066929;28;20244;-74
2021/09/05 07:44:54;;;;;;;3.80;3.50;;;19.90;73.90;;;;;;5066600;28;20191;-75
2021/09/05 07:47:19;;;;;;;3.90;3.15;;;20.10;73.30;;;;;;5065006;28;20265;-75
2021/09/05 07:49:45;;;;;;;3.25;3.05;;;20.30;73.10;;;;;;5069168;28;20183;-76
2021/09/05 07:52:11;;;;;;;3.40;2.42;;;20.50;72.30;;;;;;5065765;28;20219;-74
2021/09/05 07:54:37;;;;;;;3.88;2.80;;;20.70;71.90;;;;;;5069953;28;20183;-74
2021/09/05 07:57:03;;;;;;;3.40;3.25;;;20.90;71.10;;;;;;5068269;28;20206;-74
2021/09/05 07:59:28;;;;;;;3.00;2.90;;;21.00;71.00;;;;;;5066467;28;20178;-74
2021/09/05 08:01:54;;;;;;;2.78;2.67;;;21.20;71.20;;;;;;5064256;28;20272;-74
2021/09/05 08:04:20;;;;;;;7.18;3.03;;;21.30;70.70;;;;;;5066986;28;20178;-75
2021/09/05 08:06:45;;;;;;;2.97;2.78;;;21.40;70.80;;;;;;5064517;28;20187;-74
2021/09/05 08:09:11;;;;;;;2.83;2.72;;;21.60;70.80;;;;;;5070336;28;20647;-74
2021/09/05 08:11:37;;;;;;;3.90;2.95;;;21.70;69.70;;;;;;5064107;28;20216;-76
2021/09/05 08:14:02;;;;;;;3.00;2.90;;;21.80;69.30;;;;;;5069147;28;20178;-74
2021/09/05 08:16:28;;;;;;;2.88;2.78;;;21.90;68.90;;;;;;5068220;28;20186;-75
2021/09/05 08:18:54;;;;;;;3.03;2.70;;;22.10;68.80;;;;;;5072730;28;20693;-76
2021/09/05 08:21:20;;;;;;;2.90;2.80;;;22.30;68.70;;;;;;5070309;28;20273;-76
2021/09/05 08:23:46;;;;;;;3.85;3.10;;;22.40;68.10;;;;;;5071912;28;20292;-76
2021/09/05 08:26:12;;;;;;;2.80;2.60;;;22.60;67.90;;;;;;5068091;28;20681;-75
2021/09/05 08:28:40;;;;;;;2.53;2.42;;;22.70;67.90;;;;;;5071924;28;20190;-75
2021/09/05 08:31:06;;;;;;;3.10;2.78;;;22.90;67.90;;;;;;5069192;28;20715;-73
2021/09/05 08:33:32;;;;;;;2.88;2.70;;;23.00;67.80;;;;;;5066384;28;20170;-73
2021/09/05 08:35:58;;;;;;;3.08;2.80;;;23.10;66.90;;;;;;5061931;28;20193;-74
2021/09/05 08:38:23;;;;;;;3.05;2.95;;;23.30;66.90;;;;;;5064137;28;20970;-74
2021/09/05 08:40:50;;;;;;;3.35;3.15;;;23.40;66.90;;;;;;5060257;28;20628;-74
2021/09/05 08:43:20;;;;;;;2.35;2.35;;;23.60;66.80;;;;;;5075276;28;20166;-73
2021/09/05 08:45:46;;;;;;;2.72;2.63;;;23.90;66.00;;;;;;5062471;28;20287;-74
2021/09/05 08:48:14;;;;;;;2.88;2.78;;;24.30;65.30;;;;;;5058944;28;20190;-73
2021/09/05 08:50:40;;;;;;;2.85;2.75;;;24.70;64.70;;;;;;5056853;28;20704;-73
2021/09/05 08:53:06;;;;;;;2.92;2.67;;;25.30;63.60;;;;;;5066523;28;20249;-72
2021/09/05 08:55:32;;;;;;;2.42;2.42;;;25.90;62.90;;;;;;5069191;28;20182;-73
2021/09/05 08:57:58;;;;;;;3.15;2.95;;;26.60;61.50;;;;;;5069897;28;20264;-70
2021/09/05 09:00:24;;;;;;;3.15;2.53;;;27.10;60.70;;;;;;5061768;28;20313;-73
2021/09/05 09:02:53;;;;;;;2.47;2.40;;;27.60;60.30;;;;;;5060474;28;20178;-72
2021/09/05 09:05:49;;;;;;;2.83;2.72;;;28.40;59.50;;;;;;5068330;28;20866;-73
2021/09/05 09:08:15;;;;;;;2.78;2.67;;;29.10;57.10;;;;;;5062497;28;20270;-75
2021/09/05 09:10:53;;;;;;;2.53;2.28;;;29.50;56.00;;;;;;5062782;28;20262;-72
2021/09/05 09:13:29;;;;;;;2.50;2.40;;;29.80;54.60;;;;;;5064093;28;20238;-72
2021/09/05 09:15:57;;;;;;;3.67;3.00;;;30.00;54.80;;;;;;5066522;28;20197;-73
2021/09/05 09:18:25;;;;;;;2.97;2.70;;;30.20;54.70;;;;;;5060675;28;20679;-74
2021/09/05 09:20:54;;;;;;;2.88;2.50;;;30.40;53.80;;;;;;5065672;28;20183;-74
2021/09/05 09:23:25;;;;;;;2.88;2.60;;;30.50;54.50;;;;;;5067411;28;20273;-74
2021/09/05 09:26:00;;;;;;;2.28;2.05;;;30.80;54.10;;;;;;5073268;28;20182;-74
2021/09/05 09:28:29;;;;;;;2.97;2.88;;;31.20;53.00;;;;;;5069012;28;20175;-73
2021/09/05 09:31:00;;;;;;;2.30;2.13;;;31.50;53.20;;;;;;5068580;28;20270;-73
2021/09/05 09:33:27;;;;;;;2.40;2.40;;;31.60;51.60;;;;;;5075567;28;20170;-73
2021/09/05 09:36:01;;;;;;;2.40;2.30;;;31.60;51.80;;;;;;5067125;28;20668;-73
2021/09/05 09:38:27;;;;;;;2.70;2.33;;;31.80;52.40;;;;;;5069539;28;20174;-73
2021/09/05 09:41:13;;;;;;;2.75;2.65;;;32.20;52.00;;;;;;5066378;28;20186;-73
2021/09/05 09:43:55;;;;;;;2.72;2.47;;;32.60;49.90;;;;;;5071684;28;20178;-73
2021/09/05 09:46:23;;;;;;;2.47;2.40;;;32.70;49.80;;;;;;5074716;28;20659;-73
2021/09/05 09:48:51;;;;;;;2.28;2.10;;;32.80;50.60;;;;;;5065816;28;20600;-73
2021/09/05 09:51:18;;;;;;;2.40;2.40;;;32.90;47.70;;;;;;5076312;28;20202;-73
2021/09/05 09:53:44;;;;;;;7.38;2.13;;;33.10;49.30;;;;;;5065753;28;20690;-73
2021/09/05 09:56:14;;;;;;;2.03;1.92;;;33.50;50.50;;;;;;5070036;28;20179;-73
2021/09/05 09:58:39;;;;;;;2.22;2.13;;;33.70;49.00;;;;;;5069409;28;20610;-73
2021/09/05 10:01:05;;;;;;;2.42;2.33;;;33.80;49.30;;;;;;5070547;28;20194;-73
2021/09/05 10:03:31;;;;;;;2.28;2.17;;;33.80;47.80;;;;;;5072075;28;20583;-73
2021/09/05 10:05:59;;;;;;;2.30;2.20;;;33.70;48.30;;;;;;5081644;28;20174;-73
2021/09/05 10:08:27;;;;;;;2.42;2.22;;;33.60;47.40;;;;;;5069589;28;20184;-73
2021/09/05 10:10:58;;;;;;;2.35;2.17;;;33.80;49.10;;;;;;5069981;28;20914;-74
2021/09/05 10:13:29;;;;;;;2.08;2.08;;;34.20;49.10;;;;;;5074277;28;20242;-74
2021/09/05 10:15:55;;;;;;;2.05;1.95;;;34.80;47.90;;;;;;5082850;28;20718;-74
2021/09/05 10:18:21;;;;;;;1.83;1.75;;;35.20;47.10;;;;;;5070363;28;20186;-73
2021/09/05 10:20:48;;;;;;;2.53;2.15;;;35.50;48.00;;;;;;5077126;28;20187;-73
2021/09/05 10:23:13;;;;;;;2.22;2.00;;;36.20;47.90;;;;;;5070056;28;20194;-74
2021/09/05 10:25:39;;;;;;;3.35;2.25;;;36.90;46.40;;;;;;5074729;28;20577;-74
2021/09/05 10:28:05;;;;;;;1.88;1.88;;;37.70;45.40;;;;;;5071545;28;20219;-73
2021/09/05 10:30:31;;;;;;;1.88;1.77;;;38.20;44.90;;;;;;5070793;28;20311;-74
2021/09/05 10:32:59;;;;;;;2.70;2.15;;;38.30;43.50;;;;;;5073553;28;20293;-73
2021/09/05 10:35:25;;;;;;;2.15;2.05;;;38.20;44.20;;;;;;5069298;28;20174;-76
2021/09/05 10:38:10;;;;;;;2.30;2.03;;;38.20;44.90;;;;;;5070059;28;20189;-75
2021/09/05 10:40:44;;;;;;;2.20;2.20;;;38.40;41.70;;;;;;5076575;28;20608;-73
2021/09/05 10:43:10;;;;;;;2.00;1.98;;;38.40;43.00;;;;;;5073404;28;20170;-73
2021/09/05 10:45:39;;;;;;;4.22;2.13;;;38.30;43.10;;;;;;5069923;28;20186;-73
2021/09/05 10:48:34;;;;;;;2.33;2.08;;;38.10;43.70;;;;;;5070027;28;20186;-73
2021/09/05 10:51:11;;;;;;;1.73;1.73;;;37.70;41.20;;;;;;5072515;28;20212;-73
2021/09/05 10:53:51;;;;;;;1.85;1.75;;;37.80;41.80;;;;;;5075476;28;20210;-74
2021/09/05 10:56:23;;;;;;;2.40;2.30;;;37.90;41.50;;;;;;5078275;28;20670;-73
2021/09/05 10:58:53;;;;;;;2.30;2.20;;;38.10;42.20;;;;;;5074298;28;20709;-73
2021/09/05 11:01:38;;;;;;;2.38;2.20;;;38.60;41.60;;;;;;5069684;28;20182;-73
2021/09/05 11:04:13;;;;;;;2.10;2.08;;;38.60;40.50;;;;;;5074635;28;20181;-73
2021/09/05 11:06:57;;;;;;;2.15;2.05;;;38.10;41.50;;;;;;5077028;28;20667;-73
2021/09/05 11:09:23;;;;;;;1.92;1.92;;;37.30;41.40;;;;;;5071802;28;20189;-72
2021/09/05 11:11:56;;;;;;;1.98;1.90;;;36.70;42.80;;;;;;5075756;28;20207;-76
2021/09/05 11:14:37;;;;;;;1.63;1.63;;;36.60;43.60;;;;;;5071084;28;20183;-74
2021/09/05 11:17:08;;;;;;;2.15;2.15;;;36.70;42.20;;;;;;5069208;28;20764;-75
2021/09/05 11:19:45;;;;;;;1.95;1.95;;;36.60;43.50;;;;;;5071082;28;20189;-74
2021/09/05 11:22:19;;;;;;;1.85;1.75;;;36.40;42.20;;;;;;5071641;28;20276;-75
2021/09/05 11:24:46;;;;;;;3.28;2.17;;;35.90;44.10;;;;;;5075203;28;20196;-74
2021/09/05 11:27:14;;;;;;;2.17;2.00;;;35.20;44.30;;;;;;5069487;28;20270;-72
2021/09/05 11:29:40;;;;;;;1.90;1.90;;;34.40;44.60;;;;;;5066246;28;20186;-72
2021/09/05 11:32:13;;;;;;;1.80;1.70;;;33.70;45.60;;;;;;5063430;28;20238;-72
2021/09/05 11:34:52;;;;;;;3.28;2.03;;;32.90;44.90;;;;;;5069362;28;20242;-71
2021/09/05 11:37:28;;;;;;;1.50;1.50;;;32.20;45.40;;;;;;5067220;28;20178;-73
2021/09/05 11:39:55;;;;;;;1.98;1.80;;;31.80;45.90;;;;;;5059935;28;20182;-74
2021/09/05 11:42:21;;;;;;;1.70;1.70;;;31.30;47.30;;;;;;5064420;28;20179;-73
2021/09/05 11:44:46;;;;;;;2.10;1.98;;;31.00;48.20;;;;;;5068985;28;20186;-72
2021/09/05 11:47:14;;;;;;;1.83;1.63;;;30.80;48.30;;;;;;5061707;28;20183;-72
2021/09/05 11:49:48;;;;;;;1.90;1.90;;;30.70;47.80;;;;;;5067531;28;20177;-72
2021/09/05 11:52:20;;;;;;;1.80;1.80;;;30.60;48.20;;;;;;5067890;28;20222;-72
2021/09/05 11:54:48;;;;;;;1.58;1.58;;;30.40;48.30;;;;;;5066863;28;20187;-73
2021/09/05 11:57:14;;;;;;;2.53;1.60;;;30.30;48.50;;;;;;5061099;28;20187;-74
2021/09/05 11:59:40;;;;;;;1.90;1.80;;;30.00;48.10;;;;;;5057783;28;20256;-73
2021/09/05 12:02:06;;;;;;;1.55;1.50;;;29.80;48.20;;;;;;5067148;28;20191;-73
2021/09/05 12:04:34;;;;;;;2.17;2.08;;;29.50;48.40;;;;;;5067040;28;20183;-74
2021/09/05 12:07:01;;;;;;;2.40;2.30;;;29.30;48.90;;;;;;5067101;28;20174;-74
2021/09/05 12:09:32;;;;;;;1.92;1.83;;;29.20;49.30;;;;;;5068528;28;20191;-74
2021/09/05 12:11:59;;;;;;;3.50;1.98;;;29.10;49.70;;;;;;5068024;28;20285;-73
2021/09/05 12:14:29;;;;;;;1.42;1.42;;;29.00;49.20;;;;;;5064998;28;20279;-74
2021/09/05 12:16:55;;;;;;;1.83;1.73;;;28.80;49.00;;;;;;5070892;28;20183;-74
2021/09/05 12:19:21;;;;;;;2.00;2.00;;;28.60;49.80;;;;;;5062225;28;20567;-74
2021/09/05 12:21:57;;;;;;;2.13;1.90;;;28.50;50.10;;;;;;5070671;28;20226;-74
2021/09/05 12:24:31;;;;;;;2.10;2.00;;;28.40;50.20;;;;;;5063513;28;20241;-74
2021/09/05 12:27:07;;;;;;;2.33;2.22;;;28.20;49.60;;;;;;5062944;28;20184;-74
2021/09/05 12:29:33;;;;;;;4.18;2.05;;;28.10;49.60;;;;;;5073678;28;20209;-74
2021/09/05 12:32:03;;;;;;;2.13;1.63;;;27.90;49.80;;;;;;5070217;28;20237;-74
2021/09/05 12:34:42;;;;;;;1.70;1.70;;;27.70;50.20;;;;;;5065689;28;20215;-74
2021/09/05 12:37:19;;;;;;;3.63;1.80;;;27.50;50.30;;;;;;5066987;28;20278;-74
2021/09/05 12:39:51;;;;;;;1.85;1.83;;;27.30;50.60;;;;;;5068989;28;20231;-74
2021/09/05 12:42:19;;;;;;;1.83;1.73;;;27.20;51.10;;;;;;5062958;28;20179;-74
2021/09/05 12:44:50;;;;;;;1.73;1.63;;;27.20;51.40;;;;;;5066685;28;20183;-75
2021/09/05 12:47:23;;;;;;;2.50;1.95;;;27.20;51.60;;;;;;5064743;28;20179;-74
2021/09/05 12:49:49;;;;;;;1.70;1.70;;;27.30;51.50;;;;;;5072496;28;20247;-75